Погода Президенте Олегариона 2 недели

Минас-Жерайс, Бразилия

15 - 28 июля
  • 15июля
    Сегодня
    +13°
    +27°
    Ясно и безоблачно
    ВремяПогодаТемператураВлажностьДавлениеВетер, м/сВероятность осадков
    00:00Ясно и безоблачно+16°C57 %689 мм1.4 м/с5 %
    03:00Ясно и безоблачно+14°C60 %689 мм2.2 м/с5 %
    06:00Ясно и безоблачно+14°C64 %689 мм2.0 м/с5 %
    09:00Ясно и безоблачно+19°C46 %691 мм2.1 м/с5 %
    12:00Ясно и безоблачно+24°C32 %692 мм1.7 м/с5 %
    15:00Ясно и безоблачно+26°C30 %690 мм1.6 м/с5 %
    18:00Ясно и безоблачно+23°C38 %690 мм2.3 м/с5 %
    21:00Ясно и безоблачно+20°C44 %691 мм2.9 м/с5 %
  • 16июля
    Вторник
    +13°
    +27°
    Ясно и безоблачно
    ВремяПогодаТемператураВлажностьДавлениеВетер, м/сВероятность осадков
    00:00Практически безоблачно+17°C50 %690 мм2.3 м/с5 %
    03:00Облачно с прояснениями+16°C58 %689 мм3.0 м/с5 %
    06:00Небольшая облачность+14°C65 %689 мм2.5 м/с5 %
    09:00Ясно и безоблачно+19°C48 %692 мм3.0 м/с5 %
    12:00Облачно с прояснениями+24°C36 %692 мм3.2 м/с5 %
    15:00Ясно и безоблачно+27°C33 %691 мм2.6 м/с5 %
    18:00Ясно и безоблачно+23°C42 %691 мм2.4 м/с5 %
    21:00Ясно и безоблачно+21°C46 %691 мм2.5 м/с5 %
  • 17июля
    Среда
    +14°
    +27°
    Ясно и безоблачно
    ВремяПогодаТемператураВлажностьДавлениеВетер, м/сВероятность осадков
    00:00Ясно и безоблачно+18°C56 %690 мм1.9 м/с5 %
    03:00Ясно и безоблачно+15°C63 %689 мм2.4 м/с5 %
    06:00Ясно и безоблачно+14°C72 %689 мм2.0 м/с5 %
    09:00Ясно и безоблачно+19°C53 %692 мм1.7 м/с5 %
    12:00Ясно и безоблачно+24°C37 %692 мм2.1 м/с5 %
    15:00Ясно и безоблачно+27°C33 %690 мм1.0 м/с5 %
    18:00Ясно и безоблачно+24°C42 %690 мм1.3 м/с5 %
    21:00Ясно и безоблачно+22°C48 %690 мм1.1 м/с5 %
  • 18июля
    Четверг
    +14°
    +28°
    Облачно с прояснениями
    ВремяПогодаТемператураВлажностьДавлениеВетер, м/сВероятность осадков
    00:00Ясно и безоблачно+18°C55 %689 мм0.2 м/с5 %
    03:00Ясно и безоблачно+16°C60 %687 мм1.0 м/с5 %
    06:00Облачно с прояснениями+16°C66 %688 мм1.6 м/с5 %
    09:00Практически безоблачно+20°C46 %691 мм1.8 м/с5 %
    12:00Облачно с прояснениями+25°C33 %691 мм1.7 м/с5 %
    15:00Облачно с прояснениями+28°C30 %689 мм1.0 м/с5 %
    18:00Ясно и безоблачно+24°C43 %688 мм1.4 м/с5 %
    21:00Ясно и безоблачно+21°C50 %689 мм1.3 м/с5 %
  • 19июля
    Пятница
    +15°
    +30°
    Ясно и безоблачно
    ВремяПогодаТемператураВлажностьДавлениеВетер, м/сВероятность осадков
    00:00Ясно и безоблачно+17°C60 %689 мм1.2 м/с5 %
    03:00Ясно и безоблачно+15°C65 %688 мм1.5 м/с5 %
    06:00Ясно и безоблачно+15°C67 %688 мм1.7 м/с5 %
    09:00Ясно и безоблачно+21°C44 %691 мм1.2 м/с5 %
    12:00Ясно и безоблачно+26°C29 %691 мм2.1 м/с5 %
    15:00Ясно и безоблачно+29°C26 %690 мм2.1 м/с5 %
    18:00Ясно и безоблачно+25°C37 %690 мм2.3 м/с5 %
    21:00Ясно и безоблачно+22°C45 %690 мм2.7 м/с5 %
Мы используем cookies
Соглашаюсь